Time;durP1;ratioP1;P1;durP2;ratioP2;P2;SDS_P1;SDS_P2;PMS_P1;PMS_P2;Temp;Humidity;BMP_temperature;BMP_pressure;BME280_temperature;BME280_humidity;BME280_pressure;Samples;Min_cycle;Max_cycle;Signal;HPM_P1;HPM_P2
2022/04/12 00:00:44;;;;;;;5.30;2.70;;;;;;;7.46;63.45;99493.97;12187068;19;20483;-81
2022/04/12 00:04:45;;;;;;;8.27;2.97;;;;;;;7.47;63.16;99498.41;12208095;19;20484;-81
2022/04/12 00:08:47;;;;;;;5.10;2.85;;;;;;;7.45;63.31;99496.97;12210328;19;20012;-81
2022/04/12 00:12:49;;;;;;;7.20;3.07;;;;;;;7.43;64.05;99496.34;12184785;19;20031;-81
2022/04/12 00:19:02;;;;;;;7.15;3.60;;;;;;;7.40;64.31;99483.94;12201234;19;20002;-81
2022/04/12 00:21:12;;;;;;;9.20;3.47;;;;;;;7.41;64.80;99485.63;12210656;19;20006;-80
2022/04/12 00:25:14;;;;;;;7.30;3.50;;;;;;;7.39;64.64;99484.19;12188812;19;20356;-80
2022/04/12 00:29:16;;;;;;;7.18;2.72;;;;;;;7.41;64.89;99484.81;12214421;19;20006;-80
2022/04/12 00:33:17;;;;;;;4.78;2.60;;;;;;;7.47;64.30;99486.59;12210081;19;20010;-81
2022/04/12 00:37:19;;;;;;;8.13;3.40;;;;;;;7.54;64.08;99479.09;12185421;19;20066;-81
2022/04/12 00:41:21;;;;;;;5.97;3.10;;;;;;;7.59;63.98;99483.88;12207470;19;20481;-81
2022/04/12 00:45:22;;;;;;;10.32;2.65;;;;;;;7.65;63.95;99474.69;12210976;19;20014;-81
2022/04/12 00:49:24;;;;;;;5.63;2.75;;;;;;;7.68;64.15;99477.78;12191087;19;20018;-81
2022/04/12 00:53:27;;;;;;;5.82;2.60;;;;;;;7.71;64.36;99473.72;12211950;19;20027;-81
2022/04/12 00:57:30;;;;;;;7.07;2.55;;;;;;;7.70;64.31;99470.16;12192426;19;20010;-81
2022/04/12 01:01:33;;;;;;;5.47;2.95;;;;;;;7.71;64.62;99471.81;12208933;19;20018;-82
2022/04/12 01:05:36;;;;;;;5.78;2.72;;;;;;;7.73;64.77;99475.16;12205410;19;20372;-81
2022/04/12 01:09:37;;;;;;;6.05;2.65;;;;;;;7.72;64.94;99476.22;12183696;19;20007;-80
2022/04/12 01:13:39;;;;;;;5.32;3.08;;;;;;;7.72;64.64;99470.72;12202996;19;20011;-81
2022/04/12 01:17:45;;;;;;;5.75;2.72;;;;;;;7.73;64.63;99466.94;12208059;19;20456;-80
2022/04/12 01:21:54;;;;;;;4.80;2.83;;;;;;;7.74;64.61;99459.53;12188696;19;20299;-81
2022/04/12 01:25:56;;;;;;;9.18;3.00;;;;;;;7.74;64.95;99465.84;12200988;19;20006;-82
2022/04/12 01:29:58;;;;;;;4.70;2.95;;;;;;;7.74;64.75;99467.75;12208809;19;19999;-82
2022/04/12 01:34:00;;;;;;;6.40;3.07;;;;;;;7.73;64.54;99469.66;12184222;19;20014;-82
2022/04/12 01:38:01;;;;;;;7.45;3.03;;;;;;;7.75;64.49;99461.19;12203192;19;20011;-82
2022/04/12 01:42:03;;;;;;;8.27;3.30;;;;;;;7.71;65.12;99463.59;12208134;19;20021;-82
2022/04/12 01:46:05;;;;;;;4.60;2.50;;;;;;;7.67;65.45;99465.13;12183416;19;20130;-82
2022/04/12 01:50:07;;;;;;;8.20;3.17;;;;;;;7.64;65.55;99464.75;12207661;19;20034;-80
2022/04/12 01:54:09;;;;;;;8.20;2.90;;;;;;;7.61;65.93;99470.72;12200051;19;20015;-81
2022/04/12 01:58:11;;;;;;;6.70;3.08;;;;;;;7.58;65.60;99469.28;12183154;19;20259;-81
2022/04/12 02:02:13;;;;;;;7.03;3.30;;;;;;;7.57;66.40;99466.81;12202676;19;20476;-81
2022/04/12 02:06:15;;;;;;;4.68;2.50;;;;;;;7.53;66.28;99459.06;12205217;19;20034;-81
2022/04/12 02:10:19;;;;;;;5.18;2.80;;;;;;;7.50;66.48;99465.03;12183121;19;20027;-81
2022/04/12 02:14:22;;;;;;;9.43;2.95;;;;;;;7.49;66.85;99465.25;12201869;19;20032;-81
2022/04/12 02:18:24;;;;;;;6.15;3.28;;;;;;;7.47;66.53;99448.22;12205212;19;20027;-81
2022/04/12 02:22:25;;;;;;;6.53;3.45;;;;;;;7.47;66.58;99448.22;12184169;19;20480;-81
2022/04/12 02:26:27;;;;;;;6.97;2.75;;;;;;;7.46;66.55;99449.28;12201088;19;20006;-82
2022/04/12 02:30:29;;;;;;;9.75;3.35;;;;;;;7.46;67.00;99452.84;12195840;19;20006;-82
2022/04/12 02:34:30;;;;;;;7.07;2.97;;;;;;;7.46;66.51;99452.84;12203335;19;20074;-82
2022/04/12 02:38:32;;;;;;;8.63;3.15;;;;;;;7.49;66.49;99457.03;12200516;19;20576;-82
2022/04/12 02:42:34;;;;;;;6.50;3.10;;;;;;;7.49;66.58;99465.25;12170808;19;20113;-81
2022/04/12 02:46:35;;;;;;;7.00;3.25;;;;;;;7.47;66.81;99448.22;12161233;19;20018;-82
2022/04/12 02:50:37;;;;;;;5.95;3.17;;;;;;;7.44;66.87;99443.22;12201435;19;20027;-82
2022/04/12 02:54:39;;;;;;;5.95;3.58;;;;;;;7.42;67.20;99442.59;12184113;19;20014;-81
2022/04/12 02:58:41;;;;;;;6.88;3.67;;;;;;;7.39;67.07;99440.34;12202510;19;20079;-81
2022/04/12 03:02:42;;;;;;;5.03;3.10;;;;;;;7.37;67.39;99446.06;12208810;19;20027;-82
2022/04/12 03:06:44;;;;;;;7.65;3.25;;;;;;;7.36;67.27;99438.09;12188303;19;20027;-81
2022/04/12 03:10:46;;;;;;;8.95;3.13;;;;;;;7.35;67.67;99434.50;12213646;19;20573;-82
2022/04/12 03:14:48;;;;;;;8.20;3.58;;;;;;;7.35;67.61;99439.13;12217075;19;20817;-82
2022/04/12 03:18:50;;;;;;;7.60;3.67;;;;;;;7.35;67.63;99426.28;12191790;19;21642;-82
2022/04/12 03:22:52;;;;;;;8.23;3.60;;;;;;;7.35;67.86;99428.16;12211203;19;20030;-82
2022/04/12 03:26:54;;;;;;;11.98;3.10;;;;;;;7.37;67.73;99429.59;12210673;19;20285;-81
2022/04/12 03:30:55;;;;;;;6.32;3.75;;;;;;;7.38;67.46;99430.47;12188526;19;20007;-81
2022/04/12 03:34:57;;;;;;;9.57;4.55;;;;;;;7.35;67.37;99433.66;12211742;19;20329;-81
2022/04/12 03:38:59;;;;;;;5.57;3.60;;;;;;;7.30;67.75;99437.94;12213621;19;20011;-81
2022/04/12 03:43:02;;;;;;;5.85;3.17;;;;;;;7.25;67.93;99434.25;12187562;19;20082;-82
2022/04/12 03:47:03;;;;;;;;;;;;;;;7.19;68.26;99436.03;12206266;19;20074;-81
2022/04/12 03:51:05;;;;;;;8.23;3.40;;;;;;;7.13;67.96;99431.50;12207593;19;19911;-82
2022/04/12 03:55:10;;;;;;;6.47;3.50;;;;;;;7.05;68.71;99431.88;12187348;19;20015;-81
2022/04/12 03:59:12;;;;;;;6.63;3.00;;;;;;;6.99;68.89;99425.44;12207454;19;20456;-81
2022/04/12 04:03:14;;;;;;;6.05;3.38;;;;;;;6.95;69.59;99431.59;12208789;19;20011;-80
2022/04/12 04:07:16;;;;;;;5.63;3.27;;;;;;;6.94;69.58;99421.72;12183417;19;20023;-80
2022/04/12 04:11:17;;;;;;;7.80;3.78;;;;;;;6.93;69.58;99425.50;12209352;19;20006;-80
2022/04/12 04:15:19;;;;;;;7.93;3.58;;;;;;;6.92;69.70;99421.13;12207311;19;20022;-80
2022/04/12 04:19:21;;;;;;;7.28;3.42;;;;;;;6.90;69.86;99420.50;12181401;19;20011;-80
2022/04/12 04:23:23;;;;;;;6.07;3.40;;;;;;;6.87;69.94;99431.94;12205300;19;20023;-80
2022/04/12 04:27:28;;;;;;;9.27;3.25;;;;;;;6.89;69.97;99446.22;12204856;19;20023;-80
2022/04/12 04:31:30;;;;;;;5.30;2.90;;;;;;;6.83;69.77;99450.75;12187906;19;20003;-80
2022/04/12 04:35:32;;;;;;;5.80;3.45;;;;;;;6.80;70.22;99449.31;12200581;19;20006;-80
2022/04/12 04:39:33;;;;;;;6.38;3.60;;;;;;;6.73;71.02;99445.84;12182648;19;20744;-81
2022/04/12 04:43:35;;;;;;;7.55;3.42;;;;;;;6.67;71.40;99449.53;12202831;19;20014;-81
2022/04/12 04:47:49;;;;;;;7.77;3.50;;;;;;;6.64;71.64;99455.47;12205758;19;20603;-80
2022/04/12 04:51:51;;;;;;;6.97;3.58;;;;;;;6.59;71.82;99449.84;12187025;19;20422;-81
2022/04/12 04:55:53;;;;;;;5.22;2.97;;;;;;;6.58;72.14;99457.22;12198095;19;20022;-81
2022/04/12 04:59:54;;;;;;;8.55;3.63;;;;;;;6.60;72.55;99460.56;12208611;19;20039;-81
2022/04/12 05:03:56;;;;;;;4.55;2.95;;;;;;;6.61;72.67;99459.50;12180117;19;20404;-80
2022/04/12 05:07:58;;;;;;;6.68;3.28;;;;;;;6.64;72.79;99458.19;12205646;19;20010;-81
2022/04/12 05:12:00;;;;;;;7.63;3.53;;;;;;;6.70;72.75;99464.66;12202769;19;20010;-81
2022/04/12 05:16:01;;;;;;;7.97;3.72;;;;;;;6.78;72.46;99467.91;12183318;19;20006;-81
2022/04/12 05:20:07;;;;;;;5.55;3.40;;;;;;;6.87;72.88;99471.13;12204107;19;20020;-80
2022/04/12 05:24:09;;;;;;;5.60;3.08;;;;;;;6.92;72.50;99465.75;12200104;19;20002;-81
2022/04/12 05:28:10;;;;;;;6.45;3.33;;;;;;;6.96;72.74;99468.88;12177567;19;20003;-81
2022/04/12 05:32:13;;;;;;;6.30;3.58;;;;;;;6.98;72.69;99474.94;12207400;19;20074;-81
2022/04/12 05:36:14;;;;;;;7.35;3.17;;;;;;;6.99;73.39;99466.50;12201317;19;20010;-81
2022/04/12 05:40:18;;;;;;;5.50;2.88;;;;;;;7.00;73.74;99475.56;12187022;19;20018;-81
2022/04/12 05:44:20;;;;;;;6.43;2.60;;;;;;;7.02;74.02;99484.38;12201683;19;20035;-81
2022/04/12 05:48:22;;;;;;;6.70;2.95;;;;;;;7.01;73.83;99479.97;12202676;19;20102;-81
2022/04/12 05:52:24;;;;;;;10.63;3.15;;;;;;;7.00;74.27;99481.03;12184346;19;20070;-81
2022/04/12 05:56:25;;;;;;;6.78;3.25;;;;;;;7.02;74.73;99465.19;12198746;19;20038;-81
2022/04/12 06:00:33;;;;;;;6.05;3.58;;;;;;;7.09;75.03;99463.19;12200860;19;20010;-81
2022/04/12 06:04:34;;;;;;;4.85;2.65;;;;;;;7.17;74.97;99473.81;12167582;19;20031;-80
2022/04/12 06:08:36;;;;;;;7.10;2.92;;;;;;;7.26;74.47;99464.19;12189640;19;20019;-80
2022/04/12 06:12:38;;;;;;;14.10;7.13;;;;;;;7.39;74.07;99465.84;12184998;19;20023;-80
2022/04/12 06:16:40;;;;;;;7.50;4.80;;;;;;;7.51;73.50;99468.59;12196773;19;19998;-80
2022/04/12 06:20:42;;;;;;;9.73;5.85;;;;;;;7.65;73.71;99472.78;12207738;19;20006;-80
2022/04/12 06:24:44;;;;;;;7.63;4.40;;;;;;;7.84;73.01;99481.69;12184876;19;20019;-80
2022/04/12 06:28:46;;;;;;;10.30;5.35;;;;;;;8.03;72.42;99479.66;12207903;19;20348;-80
2022/04/12 06:32:48;;;;;;;11.38;6.13;;;;;;;8.21;72.12;99470.44;12201640;19;20014;-80
2022/04/12 06:36:50;;;;;;;6.53;3.40;;;;;;;8.46;71.56;99474.78;12189091;19;20045;-80
2022/04/12 06:40:51;;;;;;;6.60;3.08;;;;;;;8.74;70.50;99469.28;12215971;19;20011;-80
2022/04/12 06:44:56;;;;;;;9.75;5.03;;;;;;;9.06;69.52;99475.09;12217352;19;20007;-81
2022/04/12 06:48:58;;;;;;;6.40;3.97;;;;;;;9.42;68.53;99478.44;12198454;19;20010;-79
2022/04/12 06:53:00;;;;;;;7.68;3.08;;;;;;;9.82;66.48;99474.66;12243468;19;20007;-79
2022/04/12 06:57:02;;;;;;;5.55;2.55;;;;;;;10.17;66.24;99473.47;12248263;19;20013;-78
2022/04/12 07:01:04;;;;;;;5.55;2.95;;;;;;;10.47;65.13;99473.91;12244032;19;20018;-79
2022/04/12 07:05:09;;;;;;;6.47;2.65;;;;;;;10.79;63.82;99480.56;12261037;19;20006;-78
2022/04/12 07:09:18;;;;;;;7.28;2.78;;;;;;;11.14;62.96;99482.84;12266572;19;20431;-79
2022/04/12 07:13:20;;;;;;;4.97;2.78;;;;;;;11.49;61.37;99484.25;12236488;19;20025;-79
2022/04/12 07:17:22;;;;;;;6.35;2.83;;;;;;;11.77;60.20;99500.47;12257912;19;20044;-78
2022/04/12 07:21:24;;;;;;;5.18;2.80;;;;;;;11.98;59.28;99500.63;12268290;19;20244;-79
2022/04/12 07:25:26;;;;;;;8.70;3.13;;;;;;;12.03;58.27;99506.19;12237049;19;20014;-78
2022/04/12 07:29:29;;;;;;;;;;;;;;;12.12;57.96;99501.00;12263034;19;20007;-81
2022/04/12 07:33:31;;;;;;;4.10;2.50;;;;;;;12.38;57.22;99491.75;12214735;19;19914;-82
2022/04/12 07:37:32;;;;;;;4.90;2.75;;;;;;;12.66;55.66;99496.00;12217632;19;20007;-82
2022/04/12 07:41:34;;;;;;;6.00;3.00;;;;;;;13.04;55.49;99480.06;12223530;19;20018;-82
2022/04/12 07:45:36;;;;;;;6.20;2.47;;;;;;;13.33;54.98;99493.41;12197845;19;20010;-82
2022/04/12 07:49:38;;;;;;;5.10;2.50;;;;;;;13.45;54.30;99486.50;12229352;19;20014;-81
2022/04/12 07:53:40;;;;;;;6.30;3.00;;;;;;;13.56;53.81;99494.78;12227490;19;20015;-81
2022/04/12 07:57:41;;;;;;;5.70;2.83;;;;;;;13.75;53.66;99490.34;12206591;19;20019;-81
2022/04/12 08:01:43;;;;;;;5.05;2.92;;;;;;;14.00;52.34;99491.41;12230205;19;20391;-81
2022/04/12 08:05:45;;;;;;;4.45;2.75;;;;;;;14.39;52.17;99499.06;12231875;19;20045;-80
2022/04/12 08:09:46;;;;;;;4.85;2.85;;;;;;;14.70;50.74;99502.59;12216514;19;20372;-81
2022/04/12 08:13:48;;;;;;;5.75;3.05;;;;;;;14.97;50.49;99497.44;12247066;19;20006;-80
2022/04/12 08:17:50;;;;;;;6.13;3.05;;;;;;;15.36;49.37;99496.63;12253280;19;20018;-79
2022/04/12 08:21:52;;;;;;;7.07;3.10;;;;;;;15.43;47.18;99490.72;12228922;19;20017;-81
2022/04/12 08:25:53;;;;;;;7.38;3.10;;;;;;;15.70;46.95;99493.03;12222030;19;20023;-83
2022/04/12 08:29:55;;;;;;;4.57;3.07;;;;;;;15.97;46.66;99486.94;12223132;19;20006;-81
2022/04/12 08:33:59;;;;;;;5.63;2.45;;;;;;;16.15;46.12;99485.34;12196483;19;20006;-80
2022/04/12 08:38:01;;;;;;;8.13;3.28;;;;;;;16.35;46.13;99487.91;12222992;19;20519;-80
2022/04/12 08:42:04;;;;;;;8.65;3.33;;;;;;;16.52;45.51;99490.22;12228726;19;20006;-80
2022/04/12 08:46:07;;;;;;;6.07;3.58;;;;;;;16.68;44.99;99488.06;12201661;19;20006;-80
2022/04/12 08:50:10;;;;;;;5.72;3.03;;;;;;;16.91;45.03;99482.78;12222888;19;20514;-80
2022/04/12 08:54:12;;;;;;;5.20;3.00;;;;;;;17.06;44.82;99477.00;12226632;19;20018;-80
2022/04/12 08:58:14;;;;;;;3.97;2.45;;;;;;;17.30;44.33;99476.91;12199973;19;20014;-81
2022/04/12 09:02:15;;;;;;;5.18;3.03;;;;;;;17.18;43.48;99460.66;12221049;19;20006;-81
2022/04/12 09:06:17;;;;;;;5.00;2.92;;;;;;;17.23;43.27;99468.94;12218717;19;20003;-80
2022/04/12 09:10:22;;;;;;;6.97;3.30;;;;;;;17.23;43.21;99463.38;12193584;19;20007;-79
2022/04/12 09:14:34;;;;;;;6.15;3.55;;;;;;;17.37;43.43;99460.66;12222586;19;20010;-81
2022/04/12 09:18:40;;;;;;;7.40;2.83;;;;;;;17.64;43.76;99464.63;12198038;19;20007;-78
2022/04/12 09:22:42;;;;;;;5.35;2.70;;;;;;;17.96;43.13;99470.22;12220851;19;20002;-79
2022/04/12 09:26:54;;;;;;;6.45;3.05;;;;;;;18.02;42.52;99470.94;12217526;19;20010;-80
2022/04/12 09:30:58;;;;;;;4.25;2.85;;;;;;;18.00;43.02;99467.66;12200553;19;20743;-81
2022/04/12 09:35:00;;;;;;;6.32;3.22;;;;;;;18.19;42.86;99454.44;12218700;19;20475;-81
2022/04/12 09:39:04;;;;;;;5.00;2.03;;;;;;;18.37;42.51;99455.47;12216578;19;20078;-81
2022/04/12 09:43:11;;;;;;;7.25;3.30;;;;;;;18.38;41.97;99454.38;12203041;19;20357;-80
2022/04/12 09:47:14;;;;;;;4.78;2.75;;;;;;;18.64;41.82;99448.22;12219707;19;20014;-81
2022/04/12 09:51:17;;;;;;;7.45;3.17;;;;;;;18.97;41.14;99440.53;12223018;19;20006;-81
2022/04/12 09:55:42;;;;;;;5.68;3.22;;;;;;;19.11;39.83;99424.56;12204966;19;20013;-79
2022/04/12 09:59:46;;;;;;;7.65;2.63;;;;;;;19.47;40.61;99425.66;12223999;19;20456;-81
2022/04/12 10:03:54;;;;;;;5.22;2.30;;;;;;;19.65;40.00;99419.06;12204303;19;20021;-79
2022/04/12 10:08:00;;;;;;;4.35;2.75;;;;;;;19.79;39.05;99410.59;12223250;19;20014;-80
2022/04/12 10:12:05;;;;;;;6.72;3.60;;;;;;;19.98;39.56;99408.38;12219634;19;20007;-80
2022/04/12 10:16:08;;;;;;;5.82;3.00;;;;;;;20.04;39.28;99401.47;12193840;19;20010;-83
2022/04/12 10:20:11;;;;;;;3.60;2.55;;;;;;;20.22;39.46;99395.97;12224508;19;20078;-80
2022/04/12 10:24:13;;;;;;;4.53;2.50;;;;;;;20.40;38.97;99392.06;12224016;19;20668;-82
2022/04/12 10:28:17;;;;;;;5.70;3.53;;;;;;;20.73;38.93;99391.66;12210661;19;20867;-82
2022/04/12 10:32:19;;;;;;;3.50;2.38;;;;;;;20.79;38.75;99381.13;12226023;19;20006;-82
2022/04/12 10:36:55;;;;;;;5.20;2.20;;;;;;;20.94;39.04;99370.28;12206664;19;20701;-83
2022/04/12 10:41:25;;;;;;;3.97;1.70;;;;;;;21.23;37.02;99365.13;12219094;19;20011;-82
2022/04/12 10:45:32;;;;;;;4.63;1.77;;;;;;;21.43;37.38;99353.25;12216756;19;20017;-82
2022/04/12 10:49:36;;;;;;;2.08;1.30;;;;;;;21.59;35.79;99343.16;12194392;19;20376;-82
2022/04/12 10:53:38;;;;;;;9.73;1.55;;;;;;;21.88;35.89;99333.16;12215314;19;20082;-82
2022/04/12 10:57:40;;;;;;;2.37;1.33;;;;;;;22.19;36.08;99324.44;12198896;19;20062;-82
2022/04/12 11:01:47;;;;;;;3.72;1.40;;;;;;;22.51;35.15;99333.31;12214493;19;20626;-82
2022/04/12 11:05:54;;;;;;;3.90;1.20;;;;;;;22.82;34.30;99323.66;12202387;19;20007;-82
2022/04/12 11:10:23;;;;;;;8.15;1.77;;;;;;;23.02;33.26;99314.41;12182581;19;20298;-82
2022/04/12 11:14:33;;;;;;;4.15;1.35;;;;;;;23.22;33.39;99314.72;12207703;19;20007;-82
2022/04/12 11:18:52;;;;;;;2.13;0.93;;;;;;;23.47;33.59;99301.53;12180488;19;20006;-83
2022/04/12 11:22:56;;;;;;;2.45;1.35;;;;;;;23.53;32.82;99306.59;12212212;19;20507;-83
2022/04/12 11:27:03;;;;;;;2.83;1.00;;;;;;;23.72;31.94;99306.06;12222402;19;20014;-81
2022/04/12 11:31:07;;;;;;;2.13;1.20;;;;;;;24.06;31.58;99302.00;12193069;19;20014;-81
2022/04/12 11:35:09;;;;;;;2.78;1.20;;;;;;;24.32;31.39;99292.31;12218401;19;20078;-82
2022/04/12 11:39:19;;;;;;;4.10;1.20;;;;;;;24.42;30.98;99288.19;12224114;19;20018;-81
2022/04/12 11:43:26;;;;;;;3.13;1.48;;;;;;;24.76;30.97;99276.41;12193615;19;20256;-83
2022/04/12 11:47:28;;;;;;;2.40;1.15;;;;;;;25.21;29.71;99285.75;12214231;19;20084;-79
2022/04/12 11:51:30;;;;;;;2.92;1.10;;;;;;;25.65;29.78;99286.50;12205591;19;20014;-81
2022/04/12 11:55:38;;;;;;;2.15;1.08;;;;;;;26.35;28.79;99285.84;12219896;19;20007;-80
2022/04/12 11:59:48;;;;;;;2.40;1.10;;;;;;;26.67;27.03;99285.75;12220370;19;20013;-80
2022/04/12 12:03:51;;;;;;;5.72;1.30;;;;;;;27.00;27.66;99288.03;12194862;19;20031;-78
2022/04/12 12:07:58;;;;;;;1.38;1.05;;;;;;;27.11;27.45;99281.81;12220642;19;20125;-79
2022/04/12 12:12:04;;;;;;;5.90;1.35;;;;;;;26.93;26.26;99284.28;12211166;19;20010;-81
2022/04/12 12:16:16;;;;;;;2.40;1.33;;;;;;;27.41;26.13;99277.16;12191309;19;20015;-80
2022/04/12 12:20:19;;;;;;;2.28;1.40;;;;;;;27.45;26.59;99280.03;12210152;19;20011;-82
2022/04/12 12:24:21;;;;;;;3.80;1.15;;;;;;;27.99;27.75;99273.34;12207035;19;20120;-80
2022/04/12 12:28:24;;;;;;;4.03;1.55;;;;;;;28.04;26.35;99278.66;12200009;19;20024;-81
2022/04/12 12:32:30;;;;;;;4.80;1.80;;;;;;;27.84;26.58;99277.09;12223794;19;20354;-82
2022/04/12 12:36:32;;;;;;;5.78;1.60;;;;;;;27.76;26.92;99275.34;12200170;19;20014;-79
2022/04/12 12:40:36;;;;;;;;;;;;;;;27.94;27.19;99288.63;12219121;19;20029;-81
2022/04/12 12:44:38;;;;;;;5.82;1.98;;;;;;;28.03;27.03;99277.03;12220491;19;20392;-82
2022/04/12 12:48:39;;;;;;;3.10;1.63;;;;;;;27.77;26.82;99280.63;12201537;19;20025;-81
2022/04/12 12:52:43;;;;;;;3.97;1.45;;;;;;;28.37;26.68;99277.13;12221749;19;20007;-81
2022/04/12 12:56:47;;;;;;;2.20;1.30;;;;;;;28.74;25.78;99276.47;12227148;19;20014;-80
2022/04/12 13:00:49;;;;;;;3.53;1.48;;;;;;;28.52;25.93;99275.34;12205896;19;20000;-80
2022/04/12 13:04:54;;;;;;;4.53;1.65;;;;;;;28.61;25.67;99273.84;12220094;19;20628;-82
2022/04/12 13:09:04;;;;;;;4.60;1.80;;;;;;;28.81;25.09;99277.34;12216769;19;20490;-81
2022/04/12 13:13:06;;;;;;;2.90;1.67;;;;;;;28.84;25.52;99275.78;12196472;19;20014;-82
2022/04/12 13:17:09;;;;;;;3.53;1.30;;;;;;;28.60;25.82;99274.25;12203707;19;20007;-81
2022/04/12 13:21:11;;;;;;;2.78;1.60;;;;;;;29.29;24.93;99269.03;12211809;19;20053;-82
2022/04/12 13:25:20;;;;;;;7.72;1.70;;;;;;;30.45;24.24;99262.31;12195610;19;20615;-80
2022/04/12 13:29:22;;;;;;;4.78;1.85;;;;;;;30.65;23.58;99257.97;12219138;19;20014;-81
2022/04/12 13:33:24;;;;;;;3.55;1.58;;;;;;;30.82;23.46;99256.44;12225275;19;20007;-82
2022/04/12 13:37:26;;;;;;;3.67;1.90;;;;;;;31.14;23.16;99253.69;12204056;19;20011;-84
2022/04/12 13:41:27;;;;;;;5.03;1.98;;;;;;;31.49;23.36;99243.63;12219539;19;20011;-82
2022/04/12 13:45:29;;;;;;;4.25;1.88;;;;;;;31.91;22.74;99239.19;12209281;19;20021;-82
2022/04/12 13:49:32;;;;;;;4.38;1.95;;;;;;;31.59;22.13;99234.28;12218382;19;20015;-81
2022/04/12 13:53:35;;;;;;;3.58;1.77;;;;;;;30.83;22.41;99229.63;12221730;19;20010;-80
2022/04/12 13:57:37;;;;;;;3.17;1.83;;;;;;;30.96;22.95;99238.59;12192954;19;20018;-81
2022/04/12 14:01:39;;;;;;;4.80;1.67;;;;;;;30.35;23.22;99233.44;12219254;19;20025;-80
2022/04/12 14:05:41;;;;;;;3.50;1.40;;;;;;;29.44;24.54;99226.59;12211903;19;20048;-82
2022/04/12 14:09:43;;;;;;;;;;;;;;;28.93;24.93;99230.09;12201124;19;20007;-82
2022/04/12 14:13:45;;;;;;;2.38;1.27;;;;;;;28.90;25.16;99226.03;12218482;19;19950;-82
2022/04/12 14:17:46;;;;;;;;;;;;;;;28.67;24.20;99225.34;12221532;19;20014;-80
2022/04/12 14:22:08;;;;;;;4.50;1.17;;;;;;;28.24;25.96;99219.88;12197563;19;19950;-81
2022/04/12 14:26:11;;;;;;;2.67;1.23;;;;;;;27.30;26.21;99221.56;12212216;19;20010;-83
2022/04/12 14:30:13;;;;;;;3.22;1.27;;;;;;;27.20;26.81;99221.00;12218152;19;20010;-81
2022/04/12 14:34:15;;;;;;;7.72;2.05;;;;;;;27.60;27.04;99224.50;12196086;19;20022;-83
2022/04/12 14:38:18;;;;;;;3.53;1.38;;;;;;;28.10;27.10;99214.00;12216609;19;20007;-84
2022/04/12 14:42:20;;;;;;;3.35;1.55;;;;;;;28.31;26.52;99211.47;12204204;19;20492;-82
2022/04/12 14:46:22;;;;;;;2.08;1.27;;;;;;;28.41;26.30;99212.88;12195305;19;21423;-84
2022/04/12 14:50:23;;;;;;;8.43;1.50;;;;;;;28.31;26.83;99214.31;12215309;19;20027;-83
2022/04/12 14:54:25;;;;;;;2.70;1.42;;;;;;;27.65;27.82;99210.88;12211680;19;20453;-85
2022/04/12 14:58:31;;;;;;;4.63;1.60;;;;;;;27.23;28.23;99216.59;12204583;19;20131;-85
2022/04/12 15:02:33;;;;;;;4.10;1.67;;;;;;;27.01;28.20;99213.34;12227304;19;20396;-84
2022/04/12 15:06:35;;;;;;;4.03;1.75;;;;;;;26.63;28.67;99216.22;12203010;19;20010;-84
2022/04/12 15:10:37;;;;;;;4.15;1.45;;;;;;;26.61;28.82;99207.28;12228371;19;20011;-83
2022/04/12 15:14:39;;;;;;;4.15;1.83;;;;;;;26.48;29.06;99200.97;12218193;19;20082;-82
2022/04/12 15:18:41;;;;;;;6.32;2.90;;;;;;;26.14;29.85;99194.97;12201225;19;20452;-84
2022/04/12 15:22:43;;;;;;;4.72;1.75;;;;;;;25.99;30.26;99193.00;12222392;19;20023;-82
2022/04/12 15:26:44;;;;;;;4.15;1.70;;;;;;;25.76;30.33;99190.84;12216984;19;20476;-84
2022/04/12 15:30:46;;;;;;;8.45;1.50;;;;;;;25.59;30.80;99191.25;12199175;19;20730;-84
2022/04/12 15:34:48;;;;;;;4.45;1.67;;;;;;;25.56;30.94;99192.78;12217523;19;20015;-83
2022/04/12 15:38:52;;;;;;;2.65;1.33;;;;;;;25.52;30.72;99191.03;12216518;19;20007;-81
2022/04/12 15:42:53;;;;;;;4.32;1.95;;;;;;;25.44;30.46;99196.53;12193309;19;20025;-83
2022/04/12 15:46:57;;;;;;;4.10;1.42;;;;;;;25.35;30.92;99190.25;12212162;19;20042;-83
2022/04/12 15:50:58;;;;;;;;;;;;;;;25.09;31.42;99189.94;12216451;19;20017;-82
2022/04/12 15:55:00;;;;;;;1.92;1.33;;;;;;;25.06;31.54;99185.84;12195262;19;20167;-83
2022/04/12 15:59:05;;;;;;;2.10;1.30;;;;;;;25.09;31.23;99189.94;12219218;19;20516;-82
2022/04/12 16:03:07;;;;;;;2.65;1.63;;;;;;;24.70;31.02;99189.69;12212823;19;20018;-83
2022/04/12 16:07:08;;;;;;;2.50;1.20;;;;;;;25.01;30.99;99188.91;12187583;19;20014;-84
2022/04/12 16:11:13;;;;;;;2.08;1.30;;;;;;;25.84;29.83;99191.84;12208998;19;20421;-83
2022/04/12 16:15:15;;;;;;;4.88;1.52;;;;;;;26.03;29.86;99196.75;12207633;19;20010;-83
2022/04/12 16:19:17;;;;;;;5.15;1.33;;;;;;;25.88;30.35;99201.25;12190476;19;20014;-81
2022/04/12 16:23:19;;;;;;;2.67;1.33;;;;;;;25.56;30.12;99200.44;12216028;19;20493;-82
2022/04/12 16:27:20;;;;;;;2.75;1.40;;;;;;;25.38;30.94;99197.97;12206553;19;20007;-83
2022/04/12 16:31:22;;;;;;;3.45;1.30;;;;;;;25.16;31.19;99190.13;12187836;19;20006;-83
2022/04/12 16:35:26;;;;;;;2.65;1.20;;;;;;;24.81;30.82;99189.97;12207859;19;20007;-83
2022/04/12 16:39:28;;;;;;;3.05;1.27;;;;;;;24.54;31.52;99193.28;12207792;19;20010;-82
2022/04/12 16:43:29;;;;;;;3.37;1.20;;;;;;;24.25;31.91;99202.03;12192988;19;20010;-83
2022/04/12 16:47:32;;;;;;;2.50;1.13;;;;;;;24.03;31.93;99198.53;12205336;19;20014;-81
2022/04/12 16:51:34;;;;;;;1.67;0.80;;;;;;;23.78;32.32;99208.19;12183098;19;20263;-83
2022/04/12 16:55:36;;;;;;;;;;;;;;;23.28;33.97;99209.31;12211168;19;20476;-82
2022/04/12 16:59:38;;;;;;;5.00;1.30;;;;;;;23.04;34.04;99207.28;12213363;19;19918;-82
2022/04/12 17:03:39;;;;;;;3.40;1.45;;;;;;;22.69;34.01;99205.63;12185032;19;20102;-82
2022/04/12 17:07:41;;;;;;;7.10;3.80;;;;;;;22.43;34.74;99202.28;12199876;19;19998;-82
2022/04/12 17:11:43;;;;;;;3.08;1.27;;;;;;;22.11;35.51;99209.44;12204161;19;20035;-82
2022/04/12 17:15:45;;;;;;;2.10;0.95;;;;;;;21.78;36.24;99210.97;12177486;19;20014;-82
2022/04/12 17:19:51;;;;;;;2.22;1.10;;;;;;;21.48;37.07;99212.13;12204274;19;20396;-82
2022/04/12 17:23:53;;;;;;;3.47;1.13;;;;;;;21.19;37.14;99210.06;12210663;19;20014;-82
2022/04/12 17:27:55;;;;;;;2.30;1.23;;;;;;;20.88;37.69;99211.97;12185610;19;20078;-81
2022/04/12 17:31:56;;;;;;;3.90;1.30;;;;;;;20.59;38.46;99217.44;12233706;19;20007;-81
2022/04/12 17:35:58;;;;;;;2.95;1.30;;;;;;;20.35;38.50;99217.94;12255921;19;20022;-81
2022/04/12 17:40:00;;;;;;;3.92;1.10;;;;;;;20.07;39.23;99220.22;12234465;19;20010;-82
2022/04/12 17:44:02;;;;;;;3.10;1.25;;;;;;;19.84;39.15;99227.88;12218140;19;20013;-82
2022/04/12 17:48:04;;;;;;;4.60;1.33;;;;;;;19.58;40.00;99229.44;12211376;19;20019;-83
2022/04/12 17:52:06;;;;;;;8.68;1.50;;;;;;;19.32;40.12;99215.38;12186628;19;20256;-82
2022/04/12 17:56:11;;;;;;;2.75;1.42;;;;;;;19.07;40.59;99225.28;12211665;19;20018;-83
2022/04/12 18:00:13;;;;;;;3.38;1.27;;;;;;;18.81;41.70;99232.69;12206877;19;20027;-82
2022/04/12 18:04:15;;;;;;;3.10;1.10;;;;;;;18.62;41.40;99225.31;12182600;19;20009;-83
2022/04/12 18:08:17;;;;;;;2.63;1.30;;;;;;;18.40;41.96;99242.03;12215308;19;20011;-82
2022/04/12 18:12:19;;;;;;;5.40;1.67;;;;;;;18.17;43.11;99233.66;12201561;19;20018;-82
2022/04/12 18:16:21;;;;;;;3.30;2.10;;;;;;;18.02;42.49;99235.97;12183766;19;20022;-82
2022/04/12 18:20:22;;;;;;;5.57;1.45;;;;;;;17.89;42.82;99248.78;12199485;19;20362;-82
2022/04/12 18:24:25;;;;;;;3.63;1.60;;;;;;;17.77;43.29;99258.50;12199617;19;20076;-82
2022/04/12 18:28:27;;;;;;;;;;;;;;;17.66;43.45;99250.63;12176476;19;20013;-82
2022/04/12 18:32:29;;;;;;;2.03;1.23;;;;;;;17.58;43.58;99252.19;12200242;19;19914;-82
2022/04/12 18:36:32;;;;;;;1.97;1.37;;;;;;;17.42;44.24;99257.22;12197151;19;20006;-82
2022/04/12 18:40:34;;;;;;;2.47;1.60;;;;;;;17.28;44.82;99260.03;12217531;19;20014;-82
2022/04/12 18:44:35;;;;;;;5.90;1.60;;;;;;;17.22;44.41;99268.75;12216013;19;20015;-83
2022/04/12 18:48:37;;;;;;;2.72;1.35;;;;;;;17.13;45.02;99265.03;12193334;19;20202;-80
2022/04/12 18:52:39;;;;;;;8.15;1.60;;;;;;;17.02;45.69;99269.97;12215281;19;20467;-82
2022/04/12 18:56:40;;;;;;;3.30;2.10;;;;;;;16.93;45.88;99277.38;12218041;19;20006;-82